createdAt,value
2018-12-10T00:00:09.613Z,94533.95
2018-12-10T00:02:38.239Z,94536.29
2018-12-10T00:05:07.329Z,94532.45
2018-12-10T00:07:35.945Z,94531.28
2018-12-10T00:10:04.557Z,94529.47
2018-12-10T00:12:33.131Z,94528.72
2018-12-10T00:15:01.704Z,94527.55
2018-12-10T00:17:30.283Z,94517.70
2018-12-10T00:19:58.871Z,94526.21
2018-12-10T00:22:27.472Z,94522.38
2018-12-10T00:24:56.320Z,94516.47
2018-12-10T00:27:24.933Z,94515.73
2018-12-10T00:29:53.556Z,94470.67
2018-12-10T00:32:22.114Z,94506.75
2018-12-10T00:34:50.702Z,94511.16
2018-12-10T00:37:19.335Z,94511.91
2018-12-10T00:39:48.080Z,94516.05
2018-12-10T00:42:18.491Z,94513.12
2018-12-10T00:44:47.089Z,94524.29
2018-12-10T00:47:15.714Z,94519.26
2018-12-10T00:49:44.290Z,94515.80
2018-12-10T00:52:12.878Z,94517.77
2018-12-10T00:54:41.499Z,94511.71
2018-12-10T00:57:10.048Z,94509.72
2018-12-10T00:59:38.791Z,94505.02
2018-12-10T01:02:07.432Z,94498.26
2018-12-10T01:04:36.057Z,94497.83
2018-12-10T01:07:04.678Z,94494.27
2018-12-10T01:09:33.299Z,94434.41
2018-12-10T01:12:01.889Z,94485.76
2018-12-10T01:14:30.650Z,94483.41
2018-12-10T01:16:59.202Z,94481.91
2018-12-10T01:19:27.801Z,94473.24
2018-12-10T01:21:56.416Z,94478.20
2018-12-10T01:24:25.074Z,94467.19
2018-12-10T01:26:53.715Z,94456.22
2018-12-10T01:29:22.270Z,94451.12
2018-12-10T01:31:50.832Z,94447.13
2018-12-10T01:34:19.452Z,94451.00
2018-12-10T01:36:48.080Z,94449.02
2018-12-10T01:39:16.679Z,94457.82
2018-12-10T01:41:45.327Z,94459.89
2018-12-10T01:44:13.913Z,94327.98
2018-12-10T01:46:42.955Z,94461.22
2018-12-10T01:49:11.491Z,94463.01
2018-12-10T01:51:40.081Z,94457.71
2018-12-10T01:54:08.848Z,94453.72
2018-12-10T01:56:37.430Z,94248.13
2018-12-10T01:59:06.232Z,94441.65
2018-12-10T02:01:34.906Z,94448.17
2018-12-10T02:04:03.570Z,94453.45
2018-12-10T02:06:32.197Z,94449.59
2018-12-10T02:09:00.814Z,94441.62
2018-12-10T02:11:29.409Z,94430.36
2018-12-10T02:13:58.040Z,94429.98
2018-12-10T02:16:26.976Z,94427.75
2018-12-10T02:18:55.638Z,94420.63
2018-12-10T02:21:24.265Z,94424.25
2018-12-10T02:23:52.911Z,94421.86
2018-12-10T02:26:21.509Z,94420.38
2018-12-10T02:28:55.300Z,94414.09
2018-12-10T02:31:23.877Z,94403.94
2018-12-10T02:33:52.492Z,94403.94
2018-12-10T02:36:21.114Z,94392.96
2018-12-10T02:38:49.722Z,94379.83
2018-12-10T02:41:18.985Z,94379.73
2018-12-10T02:43:47.585Z,94378.30
2018-12-10T02:46:16.195Z,94388.36
2018-12-10T02:48:44.760Z,94386.86
2018-12-10T02:51:13.453Z,94391.92
2018-12-10T02:53:42.028Z,94392.55
2018-12-10T02:56:10.908Z,94387.91
2018-12-10T02:58:39.498Z,94387.06
2018-12-10T03:01:08.177Z,94361.47
2018-12-10T03:03:36.783Z,94361.16
2018-12-10T03:06:05.414Z,94360.11
2018-12-10T03:08:34.071Z,94367.87
2018-12-10T03:11:02.723Z,94367.77
2018-12-10T03:13:31.299Z,94378.94
2018-12-10T03:16:00.010Z,94373.77
2018-12-10T03:18:28.864Z,94379.62
2018-12-10T03:20:57.450Z,94375.28
2018-12-10T03:23:26.027Z,94371.28
2018-12-10T03:25:54.636Z,94369.95
2018-12-10T03:28:23.254Z,94375.96
2018-12-10T03:30:51.855Z,94378.06
2018-12-10T03:33:20.446Z,94388.41
2018-12-10T03:35:49.017Z,94036.31
2018-12-10T03:38:17.611Z,94390.59
2018-12-10T03:40:46.259Z,94397.92
2018-12-10T03:43:14.851Z,94404.20
2018-12-10T03:45:43.413Z,94403.02
2018-12-10T03:48:11.973Z,94404.98
2018-12-10T03:50:40.582Z,94409.15
2018-12-10T03:53:09.172Z,94416.21
2018-12-10T03:55:37.775Z,94421.22
2018-12-10T03:58:06.346Z,94427.97
2018-12-10T04:00:34.902Z,94421.80
2018-12-10T04:03:03.527Z,94424.20
2018-12-10T04:05:32.180Z,94431.27
2018-12-10T04:08:00.788Z,94431.19
2018-12-10T04:10:29.364Z,94430.45
2018-12-10T04:12:57.966Z,94430.50
2018-12-10T04:15:26.692Z,94430.66
2018-12-10T04:17:55.270Z,94427.69
2018-12-10T04:20:23.895Z,94427.05
2018-12-10T04:22:52.447Z,94426.53
2018-12-10T04:25:21.016Z,94431.85
2018-12-10T04:27:49.737Z,94430.52
2018-12-10T04:30:18.365Z,94416.21
2018-12-10T04:32:46.951Z,94423.59
2018-12-10T04:35:15.511Z,94434.02
2018-12-10T04:37:44.109Z,94435.56
2018-12-10T04:40:12.714Z,94433.92
2018-12-10T04:42:41.297Z,94426.05
2018-12-10T04:45:09.919Z,94421.27
2018-12-10T04:47:38.475Z,94424.09
2018-12-10T04:50:07.171Z,94427.12
2018-12-10T04:52:35.735Z,94423.39
2018-12-10T04:55:04.796Z,94418.54
2018-12-10T04:57:33.398Z,94422.78
2018-12-10T05:00:01.987Z,94428.27
2018-12-10T05:02:30.672Z,94430.83
2018-12-10T05:04:59.216Z,94432.23
2018-12-10T05:07:27.857Z,94418.88
2018-12-10T05:09:56.438Z,94406.10
2018-12-10T05:12:25.074Z,94401.61
2018-12-10T05:14:53.711Z,94401.66
2018-12-10T05:17:22.326Z,94400.85
2018-12-10T05:19:50.897Z,94397.86
2018-12-10T05:22:19.501Z,94401.05
2018-12-10T05:24:48.109Z,94396.17
2018-12-10T05:27:16.698Z,94390.22
2018-12-10T05:29:45.321Z,94386.45
2018-12-10T05:32:14.180Z,94392.55
2018-12-10T05:34:42.798Z,94396.33
2018-12-10T05:37:11.377Z,94399.52
2018-12-10T05:39:39.978Z,94404.16
2018-12-10T05:42:08.612Z,94405.54
2018-12-10T05:44:37.192Z,94412.77
2018-12-10T05:47:05.872Z,94416.47
2018-12-10T05:49:34.463Z,94424.34
2018-12-10T05:52:03.125Z,94428.44
2018-12-10T05:54:31.728Z,94431.75
2018-12-10T05:57:03.293Z,94433.19
2018-12-10T05:59:31.905Z,94462.70
2018-12-10T06:02:00.790Z,94438.81
2018-12-10T06:04:29.417Z,94442.38
2018-12-10T06:06:58.024Z,94444.04
2018-12-10T06:09:26.685Z,94445.67
2018-12-10T06:11:55.301Z,94449.97
2018-12-10T06:14:23.928Z,94457.23
2018-12-10T06:16:52.534Z,94453.88
2018-12-10T06:19:21.159Z,94453.88
2018-12-10T06:21:49.779Z,94457.00
2018-12-10T06:24:18.419Z,94465.41
2018-12-10T06:26:47.024Z,94461.85
2018-12-10T06:29:15.700Z,94470.95
2018-12-10T06:31:44.314Z,94460.86
2018-12-10T06:34:12.919Z,94472.48
2018-12-10T06:36:41.567Z,94483.28
2018-12-10T06:39:10.180Z,94485.30
2018-12-10T06:41:38.758Z,94488.93
2018-12-10T06:44:07.368Z,94501.16
2018-12-10T06:46:35.979Z,94498.92
2018-12-10T06:49:04.608Z,94497.59
2018-12-10T06:51:33.199Z,94504.45
2018-12-10T06:54:01.817Z,94505.14
2018-12-10T06:56:30.533Z,94512.02
2018-12-10T06:58:59.158Z,94517.19
2018-12-10T07:01:27.734Z,94525.73
2018-12-10T07:03:56.347Z,94518.77
2018-12-10T07:06:26.181Z,94529.56
2018-12-10T07:08:54.751Z,94354.20
2018-12-10T07:11:23.381Z,94534.98
2018-12-10T07:13:51.949Z,94541.15
2018-12-10T07:16:20.579Z,94547.19
2018-12-10T07:18:49.187Z,94552.50
2018-12-10T07:21:18.001Z,94555.78
2018-12-10T07:23:46.663Z,94560.84
2018-12-10T07:26:15.281Z,94564.17
2018-12-10T07:28:43.901Z,94568.78
2018-12-10T07:31:12.535Z,94573.84
2018-12-10T07:33:41.142Z,94574.06
2018-12-10T07:36:09.760Z,94577.88
2018-12-10T07:38:38.405Z,94580.25
2018-12-10T07:41:07.182Z,94585.45
2018-12-10T07:43:36.144Z,94587.30
2018-12-10T07:46:04.747Z,94589.60
2018-12-10T07:48:33.283Z,94589.02
2018-12-10T07:51:01.932Z,94593.82
2018-12-10T07:53:31.234Z,94595.84
2018-12-10T07:56:00.190Z,94604.13
2018-12-10T07:58:28.829Z,94607.67
2018-12-10T08:00:57.354Z,94601.41
2018-12-10T08:03:26.816Z,94596.09
2018-12-10T08:05:57.551Z,94613.42
2018-12-10T08:08:26.493Z,94613.34
2018-12-10T08:10:55.875Z,94618.97
2018-12-10T08:13:24.532Z,94618.66
2018-12-10T08:15:53.200Z,94625.48
2018-12-10T08:18:23.006Z,94631.33
2018-12-10T08:20:51.637Z,94629.34
2018-12-10T08:23:20.227Z,94628.42
2018-12-10T08:25:48.894Z,94624.20
2018-12-10T08:28:17.548Z,94628.59
2018-12-10T08:30:46.400Z,94634.92
2018-12-10T08:33:15.029Z,94629.30
2018-12-10T08:35:43.650Z,94626.94
2018-12-10T08:38:12.202Z,94639.41
2018-12-10T08:40:40.784Z,94633.34
2018-12-10T08:43:09.401Z,94643.13
2018-12-10T08:45:40.948Z,94638.63
2018-12-10T08:48:09.555Z,94638.66
2018-12-10T08:50:38.186Z,94640.91
2018-12-10T08:53:06.968Z,94640.25
2018-12-10T08:55:35.616Z,94637.72
2018-12-10T08:58:04.165Z,94640.97
2018-12-10T09:00:35.311Z,94643.09
2018-12-10T09:03:04.309Z,94641.53
2018-12-10T09:05:32.956Z,94638.88
2018-12-10T09:08:01.704Z,94634.87
2018-12-10T09:10:31.285Z,94630.72
2018-12-10T09:13:00.438Z,94631.42
2018-12-10T09:15:29.578Z,94633.55
2018-12-10T09:17:58.399Z,94629.20
2018-12-10T09:20:27.169Z,94622.73
2018-12-10T09:22:56.898Z,94639.92
2018-12-10T09:25:26.394Z,94629.39
2018-12-10T09:27:55.294Z,94626.22
2018-12-10T09:30:24.177Z,94629.98
2018-12-10T09:32:53.296Z,94631.64
2018-12-10T09:35:21.966Z,94627.70
2018-12-10T09:37:51.035Z,94632.49
2018-12-10T09:40:21.019Z,94632.44
2018-12-10T09:42:50.503Z,94626.55
2018-12-10T09:45:21.639Z,94587.55
2018-12-10T09:47:50.336Z,94621.45
2018-12-10T09:50:20.566Z,94610.52
2018-12-10T09:52:49.839Z,94620.17
2018-12-10T09:55:18.569Z,94615.39
2018-12-10T09:57:47.209Z,94617.26
2018-12-10T10:00:15.812Z,94621.73
2018-12-10T10:02:44.398Z,94619.80
2018-12-10T10:05:13.208Z,94615.75
2018-12-10T10:07:41.893Z,94622.27
2018-12-10T10:10:10.664Z,94624.16
2018-12-10T10:12:39.329Z,94620.59
2018-12-10T10:15:08.102Z,94616.50
2018-12-10T10:17:36.777Z,94614.00
2018-12-10T10:20:05.719Z,94613.72
2018-12-10T10:22:34.724Z,94610.21
2018-12-10T10:25:03.359Z,94602.45
2018-12-10T10:27:31.991Z,94596.35
2018-12-10T10:30:00.599Z,94602.59
2018-12-10T10:32:29.221Z,94605.73
2018-12-10T10:34:57.869Z,94597.51
2018-12-10T10:37:26.450Z,94587.81
2018-12-10T10:39:55.074Z,94592.55
2018-12-10T10:42:23.744Z,94588.04
2018-12-10T10:44:52.349Z,94584.36
2018-12-10T10:47:21.414Z,94580.30
2018-12-10T10:49:50.094Z,94581.83
2018-12-10T10:52:18.786Z,94579.64
2018-12-10T10:54:47.401Z,94571.45
2018-12-10T10:57:16.006Z,94576.98
2018-12-10T10:59:44.628Z,94572.92
2018-12-10T11:02:20.372Z,94572.80
2018-12-10T11:04:49.392Z,94576.66
2018-12-10T11:07:18.098Z,94574.31
2018-12-10T11:09:46.721Z,94574.97
2018-12-10T11:12:15.332Z,94579.10
2018-12-10T11:14:44.177Z,94583.33
2018-12-10T11:17:13.184Z,94586.25
2018-12-10T11:19:41.908Z,94574.04
2018-12-10T11:22:11.066Z,94576.96
2018-12-10T11:24:40.066Z,94575.56
2018-12-10T11:27:08.776Z,94517.09
2018-12-10T11:29:37.369Z,94572.11
2018-12-10T11:32:06.439Z,94580.40
2018-12-10T11:34:35.243Z,94579.70
2018-12-10T11:37:03.967Z,94585.83
2018-12-10T11:39:33.449Z,94578.43
2018-12-10T11:42:02.226Z,94586.05
2018-12-10T11:44:30.915Z,94587.73
2018-12-10T11:46:59.771Z,94592.18
2018-12-10T11:49:28.468Z,94590.05
2018-12-10T11:51:57.240Z,94593.67
2018-12-10T11:54:25.943Z,94591.34
2018-12-10T11:56:54.834Z,94593.37
2018-12-10T11:59:23.863Z,94590.00
2018-12-10T12:01:52.648Z,94585.75
2018-12-10T12:04:21.339Z,94585.75
2018-12-10T12:06:50.061Z,94580.41
2018-12-10T12:09:18.867Z,94584.23
2018-12-10T12:11:47.632Z,94584.03
2018-12-10T12:14:16.366Z,94584.95
2018-12-10T12:16:45.093Z,94585.02
2018-12-10T12:19:14.599Z,94585.81
2018-12-10T12:21:43.516Z,94581.00
2018-12-10T12:24:12.270Z,94583.17
2018-12-10T12:26:41.008Z,94582.27
2018-12-10T12:29:11.270Z,94585.23
2018-12-10T12:31:41.197Z,94577.70
2018-12-10T12:34:09.793Z,94582.29
2018-12-10T12:36:38.781Z,94583.69
2018-12-10T12:39:07.839Z,94578.89
2018-12-10T12:41:37.004Z,94580.62
2018-12-10T12:44:05.840Z,94578.42
2018-12-10T12:46:34.821Z,94578.67
2018-12-10T12:49:03.718Z,94585.43
2018-12-10T12:51:32.676Z,94579.09
2018-12-10T12:54:01.843Z,94578.15
2018-12-10T12:56:30.604Z,94581.29
2018-12-10T12:59:04.457Z,94580.42
2018-12-10T13:01:33.337Z,94585.02
2018-12-10T13:04:02.309Z,94588.76
2018-12-10T13:06:31.201Z,94577.14
2018-12-10T13:08:59.793Z,94583.29
2018-12-10T13:11:28.498Z,94579.34
2018-12-10T13:13:57.487Z,94575.81
2018-12-10T13:16:26.580Z,94591.44
2018-12-10T13:18:55.352Z,94588.95
2018-12-10T13:21:24.094Z,94586.35
2018-12-10T13:23:53.052Z,94589.09
2018-12-10T13:26:22.445Z,94587.14
2018-12-10T13:28:51.410Z,94587.44
2018-12-10T13:31:20.344Z,94587.69
2018-12-10T13:33:49.199Z,94594.36
2018-12-10T13:36:18.087Z,94599.45
2018-12-10T13:38:46.791Z,94594.65
2018-12-10T13:41:15.843Z,94593.81
2018-12-10T13:43:45.500Z,94592.62
2018-12-10T13:46:15.476Z,94595.70
2018-12-10T13:48:44.930Z,94601.58
2018-12-10T13:51:13.859Z,94602.39
2018-12-10T13:53:42.652Z,94604.77
2018-12-10T13:56:11.432Z,94601.92
2018-12-10T13:58:40.385Z,94601.36
2018-12-10T14:01:09.456Z,94602.05
2018-12-10T14:03:38.248Z,94550.13
2018-12-10T14:06:07.237Z,94608.12
2018-12-10T14:08:36.120Z,94607.66
2018-12-10T14:11:04.965Z,94609.18
2018-12-10T14:13:33.729Z,94607.84
2018-12-10T14:16:02.517Z,94611.23
2018-12-10T14:18:31.348Z,94612.46
2018-12-10T14:21:00.288Z,94608.84
2018-12-10T14:23:29.019Z,94598.55
2018-12-10T14:25:58.125Z,94629.66
2018-12-10T14:28:26.944Z,94620.47
2018-12-10T14:30:56.187Z,94618.57
2018-12-10T14:33:25.362Z,94620.27
2018-12-10T14:35:54.279Z,94624.65
2018-12-10T14:38:22.967Z,94632.18
2018-12-10T14:40:51.609Z,94623.92
2018-12-10T14:43:20.463Z,94629.80
2018-12-10T14:45:49.415Z,94624.44
2018-12-10T14:48:18.123Z,94613.16
2018-12-10T14:50:46.834Z,94615.00
2018-12-10T14:53:15.596Z,94620.69
2018-12-10T14:55:44.200Z,94625.17
2018-12-10T14:58:12.859Z,94630.34
2018-12-10T15:00:41.501Z,94634.41
2018-12-10T15:03:10.334Z,94639.49
2018-12-10T15:05:38.984Z,94642.73
2018-12-10T15:08:08.001Z,94648.00
2018-12-10T15:10:37.159Z,94640.66
2018-12-10T15:13:06.206Z,94652.00
2018-12-10T15:15:35.107Z,94653.40
2018-12-10T15:18:03.911Z,94656.83
2018-12-10T15:20:32.823Z,94658.55
2018-12-10T15:23:03.279Z,94657.69
2018-12-10T15:25:32.612Z,94497.06
2018-12-10T15:28:01.160Z,94665.17
2018-12-10T15:30:30.616Z,94670.91
2018-12-10T15:32:59.217Z,94665.63
2018-12-10T15:35:28.779Z,94666.80
2018-12-10T15:37:57.725Z,94667.72
2018-12-10T15:40:27.514Z,94665.42
2018-12-10T15:42:56.134Z,94665.53
2018-12-10T15:45:24.733Z,94671.21
2018-12-10T15:47:53.444Z,94673.45
2018-12-10T15:50:22.057Z,94678.36
2018-12-10T15:52:51.183Z,94672.28
2018-12-10T15:55:19.963Z,94670.59
2018-12-10T15:57:48.881Z,94682.34
2018-12-10T16:00:17.632Z,94678.16
2018-12-10T16:02:46.289Z,94676.88
2018-12-10T16:05:14.896Z,94680.11
2018-12-10T16:07:43.743Z,94684.70
2018-12-10T16:10:12.814Z,94687.95
2018-12-10T16:12:41.414Z,94690.39
2018-12-10T16:15:10.092Z,94694.18
2018-12-10T16:17:38.660Z,94693.75
2018-12-10T16:20:09.206Z,94697.84
2018-12-10T16:22:37.842Z,94696.03
2018-12-10T16:25:06.408Z,94691.55
2018-12-10T16:27:38.296Z,94702.00
2018-12-10T16:30:15.262Z,94702.84
2018-12-10T16:32:43.810Z,94705.81
2018-12-10T16:35:12.855Z,94709.81
2018-12-10T16:37:41.482Z,94711.42
2018-12-10T16:40:10.189Z,94723.12
2018-12-10T16:42:38.739Z,94724.99
2018-12-10T16:45:08.054Z,94724.78
2018-12-10T16:47:39.990Z,94728.55
2018-12-10T16:50:09.535Z,94723.71
2018-12-10T16:52:41.173Z,94724.30
2018-12-10T16:55:09.834Z,94727.27
2018-12-10T16:57:38.400Z,94725.63
2018-12-10T17:00:14.502Z,94729.63
2018-12-10T17:02:43.075Z,94740.00
2018-12-10T17:05:11.696Z,94733.29
2018-12-10T17:07:40.903Z,94738.09
2018-12-10T17:10:10.892Z,94736.44
2018-12-10T17:12:39.528Z,94736.67
2018-12-10T17:15:10.220Z,94733.47
2018-12-10T17:17:38.747Z,94734.27
2018-12-10T17:20:07.980Z,94741.95
2018-12-10T17:22:36.645Z,94734.49
2018-12-10T17:25:06.469Z,94739.00
2018-12-10T17:27:35.357Z,94743.23
2018-12-10T17:30:12.382Z,94738.75
2018-12-10T17:32:41.763Z,94743.00
2018-12-10T17:35:10.368Z,94741.15
2018-12-10T17:37:38.992Z,94735.91
2018-12-10T17:40:08.450Z,94739.11
2018-12-10T17:42:37.131Z,94744.27
2018-12-10T17:45:07.885Z,94747.28
2018-12-10T17:47:36.639Z,94739.78
2018-12-10T17:50:08.732Z,94741.61
2018-12-10T17:52:37.371Z,94746.98
2018-12-10T17:55:07.288Z,94744.88
2018-12-10T17:57:35.939Z,94745.95
2018-12-10T18:00:13.838Z,94751.54
2018-12-10T18:02:43.006Z,94757.35
2018-12-10T18:05:12.157Z,94757.67
2018-12-10T18:07:41.427Z,94759.63
2018-12-10T18:10:10.277Z,94767.52
2018-12-10T18:12:38.866Z,94763.31
2018-12-10T18:15:08.090Z,94757.72
2018-12-10T18:17:36.762Z,94760.11
2018-12-10T18:20:07.505Z,94763.00
2018-12-10T18:22:36.708Z,94758.20
2018-12-10T18:25:05.550Z,94766.46
2018-12-10T18:27:34.144Z,94639.52
2018-12-10T18:30:02.773Z,94778.75
2018-12-10T18:32:32.543Z,94766.67
2018-12-10T18:35:01.622Z,94768.98
2018-12-10T18:37:30.288Z,94779.67
2018-12-10T18:39:59.284Z,94772.96
2018-12-10T18:42:27.826Z,94769.33
2018-12-10T18:44:56.734Z,94772.69
2018-12-10T18:47:25.908Z,94777.97
2018-12-10T18:49:54.483Z,94780.06
2018-12-10T18:52:23.052Z,94789.64
2018-12-10T18:54:51.843Z,94788.80
2018-12-10T18:57:20.542Z,94794.92
2018-12-10T18:59:49.624Z,94793.82
2018-12-10T19:02:18.196Z,94795.46
2018-12-10T19:04:46.804Z,94799.80
2018-12-10T19:07:16.016Z,94805.17
2018-12-10T19:12:32.980Z,94808.81
2018-12-10T19:15:11.473Z,94808.64
2018-12-10T19:17:43.128Z,94809.17
2018-12-10T19:20:13.704Z,94810.77
2018-12-10T19:22:43.166Z,94814.27
2018-12-10T19:25:11.740Z,94814.32
2018-12-10T19:27:40.334Z,94816.23
2018-12-10T19:30:12.190Z,94828.71
2018-12-10T19:32:40.793Z,94828.17
2018-12-10T19:35:09.530Z,94825.25
2018-12-10T19:37:38.115Z,94827.20
2018-12-10T19:40:08.046Z,94822.95
2018-12-10T19:42:36.956Z,94832.89
2018-12-10T19:45:06.665Z,94834.48
2018-12-10T19:47:35.404Z,94834.18
2018-12-10T19:50:04.228Z,94827.61
2018-12-10T19:52:32.855Z,94830.00
2018-12-10T19:55:01.543Z,94816.07
2018-12-10T19:57:30.134Z,94825.47
2018-12-10T19:59:58.717Z,94814.56
2018-12-10T20:02:27.448Z,94815.93
2018-12-10T20:04:56.041Z,94816.44
2018-12-10T20:07:24.917Z,94815.09
2018-12-10T20:09:53.490Z,94813.44
2018-12-10T20:12:22.124Z,94816.59
2018-12-10T20:14:50.718Z,94813.77
2018-12-10T20:17:19.357Z,94816.09
2018-12-10T20:19:47.893Z,94810.02
2018-12-10T20:22:16.497Z,94801.58
2018-12-10T20:24:45.824Z,94800.48
2018-12-10T20:27:14.407Z,94800.30
2018-12-10T20:29:43.109Z,94805.19
2018-12-10T20:32:11.853Z,94809.28
2018-12-10T20:34:40.578Z,94806.61
2018-12-10T20:37:09.410Z,94809.81
2018-12-10T20:39:37.983Z,94810.66
2018-12-10T20:42:06.595Z,94816.20
2018-12-10T20:44:35.202Z,94811.80
2018-12-10T20:47:03.874Z,94820.16
2018-12-10T20:49:32.453Z,94819.31
2018-12-10T20:52:01.065Z,94821.48
2018-12-10T20:54:30.129Z,94823.56
2018-12-10T20:56:58.707Z,94835.38
2018-12-10T20:59:27.215Z,94834.34
2018-12-10T21:01:55.959Z,94843.66
2018-12-10T21:04:24.567Z,94837.09
2018-12-10T21:06:53.157Z,94841.17
2018-12-10T21:09:21.850Z,94850.52
2018-12-10T21:11:50.483Z,94847.59
2018-12-10T21:14:19.125Z,94819.22
2018-12-10T21:16:47.712Z,94849.73
2018-12-10T21:19:16.305Z,94852.66
2018-12-10T21:21:44.938Z,94846.75
2018-12-10T21:24:13.577Z,94853.48
2018-12-10T21:26:42.229Z,94850.52
2018-12-10T21:29:10.818Z,94849.50
2018-12-10T21:31:39.406Z,94860.98
2018-12-10T21:34:08.103Z,94855.16
2018-12-10T21:36:36.743Z,94858.31
2018-12-10T21:39:07.421Z,94855.89
2018-12-10T21:41:36.126Z,94824.69
2018-12-10T21:44:05.211Z,94854.75
2018-12-10T21:46:34.024Z,94860.30
2018-12-10T21:49:02.853Z,94865.09
2018-12-10T21:51:31.493Z,94866.34
2018-12-10T21:54:00.091Z,94863.72
2018-12-10T21:56:28.770Z,94889.80
2018-12-10T21:58:57.450Z,94865.89
2018-12-10T22:01:26.144Z,94861.33
2018-12-10T22:03:54.831Z,94854.94
2018-12-10T22:06:23.529Z,94855.48
2018-12-10T22:08:52.162Z,94862.13
2018-12-10T22:11:20.807Z,94864.59
2018-12-10T22:13:49.357Z,94864.87
2018-12-10T22:16:17.922Z,94866.20
2018-12-10T22:18:46.503Z,94864.41
2018-12-10T22:21:15.112Z,94856.97
2018-12-10T22:23:43.845Z,94864.14
2018-12-10T22:26:12.369Z,94866.08
2018-12-10T22:28:40.991Z,94876.92
2018-12-10T22:31:09.527Z,94869.58
2018-12-10T22:33:38.175Z,94869.81
2018-12-10T22:36:06.782Z,94866.91
2018-12-10T22:38:35.668Z,94877.25
2018-12-10T22:41:13.213Z,94873.53
2018-12-10T22:43:41.855Z,94878.77
2018-12-10T22:46:11.593Z,94158.08
2018-12-10T22:48:40.244Z,94873.56
2018-12-10T22:51:08.987Z,94876.27
2018-12-10T22:53:37.601Z,94878.89
2018-12-10T22:56:06.173Z,94874.40
2018-12-10T22:58:34.941Z,94876.56
2018-12-10T23:01:03.971Z,94877.67
2018-12-10T23:03:32.864Z,94874.84
2018-12-10T23:06:01.460Z,94877.24
2018-12-10T23:08:30.094Z,94875.48
2018-12-10T23:10:58.740Z,94874.99
2018-12-10T23:13:27.416Z,94882.56
2018-12-10T23:15:56.032Z,94889.64
2018-12-10T23:18:24.625Z,94897.05
2018-12-10T23:20:53.221Z,94881.92
2018-12-10T23:23:21.892Z,94889.38
2018-12-10T23:25:50.727Z,94889.48
2018-12-10T23:28:19.422Z,94885.38
2018-12-10T23:30:48.108Z,94878.23
2018-12-10T23:33:16.922Z,94883.97
2018-12-10T23:35:45.509Z,94884.00
2018-12-10T23:38:14.153Z,94888.15
2018-12-10T23:40:42.814Z,94889.64
2018-12-10T23:43:16.502Z,94894.13
2018-12-10T23:45:45.507Z,94891.12
2018-12-10T23:48:14.102Z,94886.80
2018-12-10T23:50:42.653Z,94888.13
2018-12-10T23:53:11.295Z,94890.14
2018-12-10T23:55:39.926Z,94896.48
2018-12-10T23:58:08.600Z,94882.39
